Time;durP1;ratioP1;P1;durP2;ratioP2;P2;SDS_P1;SDS_P2;PMS_P1;PMS_P2;Temp;Humidity;BMP_temperature;BMP_pressure;BME280_temperature;BME280_humidity;BME280_pressure;Samples;Min_cycle;Max_cycle;Signal;HPM_P1;HPM_P2
2023/04/13 00:02:00;;;;;;;20.50;14.80;;;;;;;4.00;80.43;99510.07;103635;280;38284;-72
2023/04/13 00:04:34;;;;;;;19.00;14.60;;;;;;;3.99;80.42;99513.54;103633;280;38356;-72
2023/04/13 00:07:15;;;;;;;17.80;13.60;;;;;;;3.96;80.51;99511.72;103615;280;38440;-68
2023/04/13 00:09:50;;;;;;;18.50;13.70;;;;;;;3.92;80.36;99508.02;103589;280;38313;-68
2023/04/13 00:12:25;;;;;;;19.00;13.50;;;;;;;3.89;80.31;99503.96;103637;280;38462;-72
2023/04/13 00:14:59;;;;;;;18.90;14.80;;;;;;;3.83;80.34;99502.20;103593;280;38528;-71
2023/04/13 00:17:33;;;;;;;20.60;14.70;;;;;;;3.80;80.44;99505.36;103686;280;38526;-71
2023/04/13 00:20:12;;;;;;;20.00;14.00;;;;;;;3.78;80.69;99499.91;103588;280;38755;-72
2023/04/13 00:22:46;;;;;;;20.90;14.30;;;;;;;3.76;80.86;99494.61;103671;280;40194;-70
2023/04/13 00:25:22;;;;;;;18.70;14.80;;;;;;;3.77;80.90;99497.52;103585;280;38829;-70
2023/04/13 00:27:56;;;;;;;22.50;14.80;;;;;;;3.77;81.02;99503.04;103428;282;39377;-71
2023/04/13 00:30:30;;;;;;;19.50;15.00;;;;;;;3.76;81.03;99500.66;103650;280;38527;-69
2023/04/13 00:33:05;;;;;;;19.70;14.50;;;;;;;3.73;81.10;99497.79;103608;280;38537;-68
2023/04/13 00:35:39;;;;;;;19.90;13.70;;;;;;;3.71;81.35;99499.39;103640;280;40076;-70
2023/04/13 00:38:13;;;;;;;19.60;13.30;;;;;;;3.72;81.32;99504.38;103629;280;38864;-71
2023/04/13 00:40:47;;;;;;;21.00;13.70;;;;;;;3.75;81.64;99504.65;103643;280;39118;-72
2023/04/13 00:43:21;;;;;;;18.00;14.30;;;;;;;3.78;81.84;99503.54;103652;280;38767;-71
2023/04/13 00:45:55;;;;;;;16.80;13.80;;;;;;;3.77;81.63;99506.84;103623;280;40597;-70
2023/04/13 00:48:29;;;;;;;19.70;14.50;;;;;;;3.72;81.43;99504.03;103646;280;38529;-72
2023/04/13 00:51:04;;;;;;;16.20;13.70;;;;;;;3.63;81.24;99499.23;103658;280;39023;-71
2023/04/13 00:53:39;;;;;;;16.00;11.60;;;;;;;3.57;81.27;99499.88;103660;280;38411;-70
2023/04/13 00:56:13;;;;;;;20.60;14.30;;;;;;;3.56;81.33;99494.75;103710;280;38667;-73
2023/04/13 00:58:47;;;;;;;16.80;13.40;;;;;;;3.51;81.15;99497.44;103654;280;39119;-71
2023/04/13 01:01:21;;;;;;;18.80;13.30;;;;;;;3.47;81.24;99493.73;103615;280;39446;-72
2023/04/13 01:03:55;;;;;;;18.40;14.10;;;;;;;3.43;81.23;99494.17;103646;280;39492;-71
2023/04/13 01:06:33;;;;;;;17.90;13.40;;;;;;;3.37;81.13;99492.08;103564;280;175724;-72
2023/04/13 01:09:11;;;;;;;20.20;13.10;;;;;;;3.34;81.59;99494.39;103628;269;38860;-72
2023/04/13 01:11:48;;;;;;;17.70;13.10;;;;;;;3.34;81.47;99492.33;103699;280;38814;-68
2023/04/13 01:14:28;;;;;;;15.30;12.60;;;;;;;3.32;81.45;99489.25;103649;280;39781;-67
2023/04/13 01:17:01;;;;;;;;;;;;;;;3.30;81.45;99486.04;103703;280;39722;-71
2023/04/13 01:19:48;;;;;;;18.50;13.90;;;;;;;3.22;81.62;99484.14;103630;280;38574;-72
2023/04/13 01:22:26;;;;;;;17.50;13.50;;;;;;;3.19;81.61;99481.98;103692;280;38832;-72
2023/04/13 01:25:36;;;;;;;18.90;13.50;;;;;;;3.18;81.63;99481.14;103642;280;38440;-70
2023/04/13 01:28:12;;;;;;;16.50;12.40;;;;;;;3.16;81.85;99475.16;103171;285;39967;-70
2023/04/13 01:30:51;;;;;;;18.30;12.80;;;;;;;3.13;81.80;99473.66;103287;280;39992;-69
2023/04/13 01:33:33;;;;;;;18.10;13.50;;;;;;;3.11;81.88;99477.15;103641;280;39594;-68
2023/04/13 01:36:11;;;;;;;18.10;13.60;;;;;;;3.09;81.86;99476.69;103208;280;644314;-69
2023/04/13 01:38:52;;;;;;;18.60;13.90;;;;;;;3.06;81.90;99477.26;103623;280;38938;-69
2023/04/13 01:41:27;;;;;;;17.40;13.10;;;;;;;3.03;82.03;99473.36;103699;280;38801;-71
2023/04/13 01:44:01;;;;;;;17.30;12.50;;;;;;;3.03;81.98;99478.34;103618;280;39312;-70
2023/04/13 01:46:36;;;;;;;19.40;13.60;;;;;;;3.04;82.25;99476.79;103667;280;38685;-69
2023/04/13 01:49:10;;;;;;;17.20;13.20;;;;;;;3.06;82.34;99475.89;103634;269;39019;-69
2023/04/13 01:51:47;;;;;;;16.60;12.40;;;;;;;3.05;82.20;99473.15;103612;280;38544;-70
2023/04/13 01:54:22;;;;;;;14.40;11.80;;;;;;;3.00;82.19;99469.62;103556;280;175729;-70
2023/04/13 01:56:58;;;;;;;14.80;11.80;;;;;;;2.96;81.99;99467.82;103718;280;39972;-71
2023/04/13 01:59:32;;;;;;;17.10;12.70;;;;;;;2.92;81.89;99468.43;103634;280;39969;-73
2023/04/13 02:02:06;;;;;;;16.40;13.20;;;;;;;2.91;82.09;99469.14;103669;280;38519;-69
2023/04/13 02:04:40;;;;;;;18.70;13.30;;;;;;;2.91;82.17;99472.95;103665;280;38046;-70
2023/04/13 02:07:19;;;;;;;17.80;12.00;;;;;;;2.88;82.29;99471.27;103620;280;38269;-67
2023/04/13 02:09:56;;;;;;;14.00;11.70;;;;;;;2.84;82.20;99467.23;103629;280;39659;-68
2023/04/13 02:12:33;;;;;;;16.30;12.30;;;;;;;2.78;81.98;99463.58;103705;280;39690;-71
2023/04/13 02:15:09;;;;;;;17.50;12.60;;;;;;;2.73;82.00;99460.55;103680;280;38635;-72
2023/04/13 02:17:43;;;;;;;16.20;12.20;;;;;;;2.74;82.21;99455.55;103653;280;38687;-72
2023/04/13 02:20:18;;;;;;;17.50;13.20;;;;;;;2.75;82.04;99459.66;103662;280;39688;-72
2023/04/13 02:22:52;;;;;;;23.90;15.10;;;;;;;2.73;82.12;99455.23;103572;281;39014;-72
2023/04/13 02:25:26;;;;;;;18.40;13.30;;;;;;;2.69;82.27;99456.52;103652;280;40140;-70
2023/04/13 02:28:00;;;;;;;19.10;13.90;;;;;;;2.66;82.17;99452.45;103432;280;38388;-70
2023/04/13 02:30:34;;;;;;;17.70;13.40;;;;;;;2.64;82.20;99452.67;103655;280;39416;-71
2023/04/13 02:33:08;;;;;;;19.70;14.50;;;;;;;2.61;82.20;99457.38;103664;280;39189;-71
2023/04/13 02:35:42;;;;;;;24.00;15.20;;;;;;;2.59;82.14;99455.68;103696;280;38806;-71
2023/04/13 02:38:16;;;;;;;22.90;15.30;;;;;;;2.57;82.27;99453.99;103633;280;39636;-72
2023/04/13 02:40:53;;;;;;;19.60;14.10;;;;;;;2.55;82.29;99452.83;103632;280;38669;-70
2023/04/13 02:43:27;;;;;;;21.60;14.30;;;;;;;2.54;82.26;99455.61;103635;280;38858;-68
2023/04/13 02:46:01;;;;;;;21.70;15.10;;;;;;;2.53;82.33;99458.05;103615;280;38867;-73
2023/04/13 02:48:35;;;;;;;22.00;16.20;;;;;;;2.53;82.38;99466.46;103616;280;38739;-73
2023/04/13 02:51:11;;;;;;;24.70;16.50;;;;;;;2.52;82.45;99468.23;103670;280;38512;-72
2023/04/13 02:53:46;;;;;;;22.30;15.80;;;;;;;2.48;82.35;99469.67;103659;280;38547;-73
2023/04/13 02:56:21;;;;;;;23.80;15.70;;;;;;;2.44;82.36;99471.98;103629;280;39806;-68
2023/04/13 02:58:58;;;;;;;25.70;17.00;;;;;;;2.41;82.39;99476.53;103640;280;39421;-68
2023/04/13 03:01:39;;;;;;;25.00;17.60;;;;;;;2.41;82.68;99476.36;103694;280;39441;-67
2023/04/13 03:04:20;;;;;;;28.50;19.70;;;;;;;2.42;82.80;99484.42;103683;291;38796;-68
2023/04/13 03:06:57;;;;;;;29.70;19.40;;;;;;;2.39;83.00;99487.91;103771;280;39564;-70
2023/04/13 03:09:31;;;;;;;29.70;19.30;;;;;;;2.37;83.08;99494.69;103687;280;38559;-72
2023/04/13 03:12:07;;;;;;;26.30;19.30;;;;;;;2.34;82.95;99501.62;103685;280;38629;-71
2023/04/13 03:14:41;;;;;;;31.10;19.40;;;;;;;2.31;82.94;99506.32;103676;280;38498;-71
2023/04/13 03:17:15;;;;;;;27.50;19.30;;;;;;;2.31;82.86;99505.63;103691;280;38264;-70
2023/04/13 03:19:50;;;;;;;29.20;21.20;;;;;;;2.30;82.76;99511.34;103688;280;38820;-72
2023/04/13 03:22:30;;;;;;;32.50;23.00;;;;;;;2.27;82.82;99518.25;103759;280;39829;-68
2023/04/13 03:25:07;;;;;;;34.00;22.80;;;;;;;2.24;82.63;99521.77;103705;280;38808;-68
2023/04/13 03:27:41;;;;;;;34.40;21.40;;;;;;;2.23;82.70;99524.71;103697;280;38582;-69
2023/04/13 03:30:19;;;;;;;34.50;23.30;;;;;;;2.22;82.89;99523.35;103709;280;39386;-68
2023/04/13 03:32:54;;;;;;;37.60;25.00;;;;;;;2.23;83.05;99522.64;103735;280;38890;-73
2023/04/13 03:35:28;;;;;;;35.90;25.90;;;;;;;2.26;83.18;99519.48;103680;280;39324;-70
2023/04/13 03:38:02;;;;;;;39.10;26.00;;;;;;;2.27;83.26;99520.16;103690;280;39070;-71
2023/04/13 03:40:37;;;;;;;44.20;25.50;;;;;;;2.28;83.26;99522.90;103712;280;38874;-71
2023/04/13 03:43:11;;;;;;;37.80;24.40;;;;;;;2.26;83.23;99525.17;103703;280;39427;-72
2023/04/13 03:45:46;;;;;;;42.20;24.80;;;;;;;2.22;83.16;99525.92;103692;280;39406;-69
2023/04/13 03:48:26;;;;;;;35.40;24.70;;;;;;;2.25;83.37;99530.17;103707;280;38953;-70
2023/04/13 03:51:01;;;;;;;38.00;25.40;;;;;;;2.31;83.71;99536.08;103728;280;40928;-68
2023/04/13 03:53:42;;;;;;;41.10;26.50;;;;;;;2.38;83.71;99538.56;103587;280;175781;-70
2023/04/13 03:56:22;;;;;;;40.70;26.20;;;;;;;2.43;83.98;99540.70;103699;280;38418;-70
2023/04/13 03:58:56;;;;;;;37.10;25.60;;;;;;;2.48;84.06;99542.67;103657;280;39645;-70
2023/04/13 04:01:30;;;;;;;38.40;24.40;;;;;;;2.53;84.35;99542.92;103707;280;38271;-67
2023/04/13 04:04:16;;;;;;;34.80;24.20;;;;;;;2.61;84.62;99548.80;103643;280;38958;-69
2023/04/13 04:06:50;;;;;;;35.80;24.80;;;;;;;2.72;84.83;99557.02;103460;280;40852;-69
2023/04/13 04:09:25;;;;;;;38.30;25.40;;;;;;;2.84;85.09;99558.68;103697;280;38235;-71
2023/04/13 04:11:59;;;;;;;41.50;26.60;;;;;;;2.98;85.71;99563.58;103737;280;38325;-69
2023/04/13 04:14:33;;;;;;;42.20;27.00;;;;;;;3.12;86.00;99561.06;103544;280;38430;-69
2023/04/13 04:17:10;;;;;;;41.30;26.70;;;;;;;3.28;86.32;99557.61;103636;280;38248;-68
2023/04/13 04:19:55;;;;;;;38.90;25.50;;;;;;;3.43;86.52;99560.04;103637;280;38354;-68
2023/04/13 04:22:36;;;;;;;39.90;25.70;;;;;;;3.56;86.68;99563.21;103665;280;38274;-69
2023/04/13 04:25:20;;;;;;;35.90;24.60;;;;;;;3.68;86.73;99564.30;103595;280;189410;-69
2023/04/13 04:28:02;;;;;;;39.80;26.50;;;;;;;3.82;86.71;99568.98;103674;280;38535;-69
2023/04/13 04:30:44;;;;;;;41.40;28.20;;;;;;;3.94;86.70;99571.81;103652;279;38399;-70
2023/04/13 04:33:24;;;;;;;40.30;25.10;;;;;;;4.06;86.93;99573.23;103674;280;39704;-69
2023/04/13 04:36:00;;;;;;;38.30;26.30;;;;;;;4.18;86.86;99569.53;103697;280;38768;-71
2023/04/13 04:38:34;;;;;;;39.00;25.40;;;;;;;4.28;86.81;99572.72;103705;280;40225;-73
2023/04/13 04:41:12;;;;;;;38.60;26.20;;;;;;;4.39;86.67;99569.67;103724;280;38922;-73
2023/04/13 04:43:49;;;;;;;40.50;26.60;;;;;;;4.49;86.61;99568.90;103654;280;38633;-73
2023/04/13 04:46:26;;;;;;;39.10;27.40;;;;;;;4.61;86.86;99564.77;103719;280;40369;-71
2023/04/13 04:49:05;;;;;;;39.40;26.20;;;;;;;4.75;86.80;99561.81;103569;280;38450;-71
2023/04/13 04:51:42;;;;;;;40.30;26.80;;;;;;;4.87;86.70;99557.85;103693;268;38246;-67
2023/04/13 04:54:21;;;;;;;42.00;27.30;;;;;;;5.00;86.69;99563.04;103691;280;39078;-69
2023/04/13 04:57:05;;;;;;;38.70;26.30;;;;;;;5.14;86.77;99563.99;103690;280;39444;-68
2023/04/13 04:59:43;;;;;;;40.80;26.60;;;;;;;5.28;87.03;99564.46;103658;280;39543;-71
2023/04/13 05:02:19;;;;;;;43.90;27.90;;;;;;;5.40;87.29;99560.47;103731;280;38275;-68
2023/04/13 05:05:00;;;;;;;41.70;28.00;;;;;;;5.53;87.29;99559.91;103685;280;38590;-70
2023/04/13 05:07:38;;;;;;;47.90;29.80;;;;;;;5.70;87.62;99558.00;103696;280;38469;-67
2023/04/13 05:10:15;;;;;;;45.00;29.30;;;;;;;5.87;87.54;99549.70;103668;280;38819;-70
2023/04/13 05:12:49;;;;;;;44.80;30.30;;;;;;;5.95;87.24;99552.55;103671;280;39635;-71
2023/04/13 05:15:25;;;;;;;45.30;30.60;;;;;;;6.06;87.12;99552.21;103739;280;38389;-71
2023/04/13 05:18:00;;;;;;;43.20;30.00;;;;;;;6.17;87.08;99559.10;103723;280;38222;-70
2023/04/13 05:20:35;;;;;;;42.10;27.70;;;;;;;6.30;87.09;99561.62;103727;280;38474;-73
2023/04/13 05:23:13;;;;;;;43.30;27.10;;;;;;;6.46;87.29;99556.77;103672;268;38568;-67
2023/04/13 05:25:53;;;;;;;41.80;27.80;;;;;;;6.64;87.84;99559.78;103730;280;38227;-72
2023/04/13 05:28:27;;;;;;;43.60;29.70;;;;;;;6.88;87.97;99558.77;103670;280;39877;-70
2023/04/13 05:31:05;;;;;;;52.10;30.70;;;;;;;7.19;88.72;99557.80;103704;280;38857;-68
2023/04/13 05:33:46;;;;;;;55.50;33.00;;;;;;;7.78;90.20;99556.23;103661;280;38273;-67
2023/04/13 05:36:30;;;;;;;48.50;31.10;;;;;;;8.14;88.18;99554.08;103665;280;40090;-68
2023/04/13 05:39:09;;;;;;;48.00;32.10;;;;;;;8.34;86.98;99549.63;103702;280;38427;-72
2023/04/13 05:41:46;;;;;;;47.10;31.50;;;;;;;8.56;86.63;99546.92;103769;280;40403;-68
2023/04/13 05:44:20;;;;;;;45.70;29.90;;;;;;;9.49;90.22;99544.66;103054;280;919711;-72
2023/04/13 05:46:54;;;;;;;42.30;28.30;;;;;;;10.30;86.62;99538.20;103709;280;38503;-70
2023/04/13 05:49:30;;;;;;;46.10;27.90;;;;;;;10.77;84.07;99529.15;103693;280;39662;-68
2023/04/13 05:52:06;;;;;;;46.30;27.70;;;;;;;11.28;80.87;99528.88;103701;280;39467;-71
2023/04/13 05:54:40;;;;;;;45.40;27.20;;;;;;;11.84;79.92;99528.03;103700;279;39589;-71
2023/04/13 05:57:15;;;;;;;46.20;27.10;;;;;;;12.98;78.96;99520.45;103752;280;38231;-71
2023/04/13 05:59:50;;;;;;;44.50;26.80;;;;;;;14.15;76.31;99518.26;103676;280;39872;-69
2023/04/13 06:02:25;;;;;;;57.50;27.60;;;;;;;15.13;71.18;99510.86;103669;280;39461;-69
2023/04/13 06:05:00;;;;;;;48.40;26.10;;;;;;;15.94;66.54;99505.07;103681;280;38264;-69
2023/04/13 06:07:36;;;;;;;55.50;28.30;;;;;;;16.68;64.16;99502.29;103698;280;39646;-70
2023/04/13 06:10:13;;;;;;;40.60;24.30;;;;;;;17.41;59.41;99499.56;103699;280;38931;-72
2023/04/13 06:12:49;;;;;;;34.30;23.40;;;;;;;17.92;58.08;99495.46;103675;280;38629;-71
2023/04/13 06:15:23;;;;;;;37.80;24.50;;;;;;;18.57;55.80;99488.59;103703;280;38521;-73
2023/04/13 06:17:57;;;;;;;40.70;26.00;;;;;;;19.07;52.59;99487.05;103698;280;38302;-72
2023/04/13 06:20:32;;;;;;;39.40;26.00;;;;;;;19.59;49.31;99488.75;103665;268;38517;-70
2023/04/13 06:23:06;;;;;;;38.30;24.60;;;;;;;19.91;48.61;99486.73;103646;280;38230;-72
2023/04/13 06:25:40;;;;;;;36.20;24.20;;;;;;;20.51;47.64;99487.98;103709;280;39650;-73
2023/04/13 06:28:14;;;;;;;33.50;23.00;;;;;;;21.09;45.54;99495.02;103666;280;39676;-71
2023/04/13 06:30:48;;;;;;;27.50;18.20;;;;;;;21.60;43.60;99497.02;103709;280;38702;-74
2023/04/13 06:33:22;;;;;;;22.50;16.30;;;;;;;22.14;42.39;99490.69;103697;280;38263;-75
2023/04/13 06:35:56;;;;;;;13.80;12.40;;;;;;;22.48;40.04;99487.73;103699;280;40466;-74
2023/04/13 06:38:30;;;;;;;14.90;12.30;;;;;;;22.50;39.39;99480.80;103702;280;38377;-70
2023/04/13 06:41:06;;;;;;;15.20;11.00;;;;;;;22.61;38.49;99479.48;103703;280;38384;-71
2023/04/13 06:43:40;;;;;;;13.70;11.70;;;;;;;22.85;37.98;99478.22;103728;280;39001;-70
2023/04/13 06:46:14;;;;;;;12.20;10.30;;;;;;;23.18;36.74;99476.08;103573;280;38640;-71
2023/04/13 06:48:48;;;;;;;11.90;10.60;;;;;;;23.35;36.37;99478.17;103661;269;38801;-69
2023/04/13 06:51:22;;;;;;;14.40;12.70;;;;;;;23.39;36.42;99477.90;103682;280;38658;-69
2023/04/13 06:53:56;;;;;;;13.80;12.00;;;;;;;23.53;35.27;99482.70;103646;280;38243;-69
2023/04/13 06:56:30;;;;;;;12.40;11.00;;;;;;;23.60;35.67;99482.42;103642;280;38261;-69
2023/04/13 06:59:04;;;;;;;11.10;9.70;;;;;;;23.63;34.52;99482.28;103628;280;40425;-70
2023/04/13 07:01:38;;;;;;;14.50;10.60;;;;;;;23.48;33.95;99481.23;103632;280;39538;-70
2023/04/13 07:04:13;;;;;;;15.20;11.10;;;;;;;23.49;34.40;99485.40;103611;280;39706;-70
2023/04/13 07:06:48;;;;;;;12.70;11.10;;;;;;;23.80;34.01;99491.06;103505;280;40949;-73
2023/04/13 07:09:22;;;;;;;11.70;10.50;;;;;;;23.87;33.42;99487.41;103613;280;38982;-72
2023/04/13 07:11:56;;;;;;;12.70;11.00;;;;;;;24.34;33.51;99487.85;103697;269;39291;-72
2023/04/13 07:14:34;;;;;;;12.30;10.90;;;;;;;24.76;31.99;99491.23;103583;280;38495;-75
2023/04/13 07:17:08;;;;;;;11.30;10.10;;;;;;;24.80;31.31;99493.66;103644;280;39942;-73
2023/04/13 07:19:46;;;;;;;11.60;9.80;;;;;;;24.99;30.42;99493.11;103625;280;38563;-71
2023/04/13 07:22:20;;;;;;;10.30;9.40;;;;;;;25.29;30.57;99496.23;103589;280;38508;-72
2023/04/13 07:24:54;;;;;;;10.70;9.60;;;;;;;25.61;29.35;99496.15;103639;280;38208;-73
2023/04/13 07:27:28;;;;;;;11.90;10.70;;;;;;;25.77;29.22;99497.52;103598;280;38501;-72
2023/04/13 07:30:02;;;;;;;10.60;9.60;;;;;;;26.07;29.25;99492.89;103632;280;38742;-72
2023/04/13 07:32:36;;;;;;;11.30;10.20;;;;;;;26.43;28.93;99490.29;103630;280;39770;-72
2023/04/13 07:35:11;;;;;;;11.40;10.30;;;;;;;26.53;28.21;99484.88;103657;280;39412;-71
2023/04/13 07:37:48;;;;;;;10.60;9.50;;;;;;;26.42;27.63;99487.45;103588;280;38278;-72
2023/04/13 07:40:22;;;;;;;11.70;10.50;;;;;;;26.38;28.81;99492.33;103605;280;38720;-72
2023/04/13 07:42:56;;;;;;;13.20;11.20;;;;;;;26.82;29.23;99489.06;103568;280;38499;-72
2023/04/13 07:45:33;;;;;;;11.80;10.80;;;;;;;27.23;27.83;99491.88;103641;280;38833;-73
2023/04/13 07:48:07;;;;;;;14.10;12.40;;;;;;;27.22;27.15;99496.89;103678;268;40105;-73
2023/04/13 07:50:45;;;;;;;12.90;11.60;;;;;;;27.33;26.79;99503.00;103692;280;39455;-71
2023/04/13 07:53:19;;;;;;;12.70;11.40;;;;;;;27.64;26.72;99502.71;103670;280;39415;-72
2023/04/13 07:55:53;;;;;;;11.80;10.80;;;;;;;27.92;25.72;99502.44;103697;279;39666;-73
2023/04/13 07:58:27;;;;;;;12.90;11.80;;;;;;;27.97;26.29;99500.74;103667;280;38249;-72
2023/04/13 08:01:01;;;;;;;13.70;12.40;;;;;;;28.33;25.95;99495.33;103686;279;38418;-72
2023/04/13 08:03:36;;;;;;;14.70;12.30;;;;;;;28.68;26.12;99491.30;103657;280;39802;-71
2023/04/13 08:06:12;;;;;;;15.00;13.00;;;;;;;29.23;24.75;99490.41;103683;280;39269;-73
2023/04/13 08:08:46;;;;;;;13.90;12.60;;;;;;;29.27;24.34;99488.52;103726;280;38968;-73
2023/04/13 08:11:22;;;;;;;14.30;12.30;;;;;;;29.17;23.90;99487.97;103761;280;39403;-75
2023/04/13 08:13:57;;;;;;;14.00;12.70;;;;;;;28.93;23.98;99487.69;103683;280;38279;-75
2023/04/13 08:16:33;;;;;;;13.70;12.30;;;;;;;28.94;24.43;99483.54;103698;280;39745;-75
2023/04/13 08:19:07;;;;;;;13.70;12.40;;;;;;;29.00;24.29;99486.80;103724;280;38889;-76
2023/04/13 08:21:43;;;;;;;15.50;14.10;;;;;;;29.32;24.84;99485.45;103734;280;38512;-73
2023/04/13 08:24:19;;;;;;;14.30;12.80;;;;;;;29.67;24.34;99479.14;103715;280;39438;-74
2023/04/13 08:26:56;;;;;;;13.70;12.50;;;;;;;29.98;24.31;99474.23;103664;280;38264;-77
2023/04/13 08:29:31;;;;;;;14.20;12.80;;;;;;;30.50;23.34;99468.39;103674;280;39962;-76
2023/04/13 08:32:06;;;;;;;13.90;12.60;;;;;;;30.49;22.92;99469.52;103737;279;38478;-75
2023/04/13 08:34:41;;;;;;;13.50;12.30;;;;;;;30.39;23.08;99473.42;103691;280;38273;-72
2023/04/13 08:37:16;;;;;;;13.70;12.30;;;;;;;30.51;22.86;99474.06;103710;280;38211;-75
2023/04/13 08:39:55;;;;;;;14.70;13.40;;;;;;;30.71;22.61;99470.63;103706;276;39443;-75
2023/04/13 08:42:30;;;;;;;15.60;14.00;;;;;;;30.56;21.43;99471.02;103709;280;38400;-75
2023/04/13 08:45:05;;;;;;;14.20;12.70;;;;;;;30.17;21.85;99469.94;103704;280;38772;-75
2023/04/13 08:47:39;;;;;;;14.20;12.50;;;;;;;30.14;22.76;99472.63;103776;280;37866;-76
2023/04/13 08:50:17;;;;;;;14.80;13.10;;;;;;;30.51;22.65;99472.05;103667;280;38236;-71
2023/04/13 08:52:53;;;;;;;13.20;11.80;;;;;;;30.77;22.41;99466.97;103567;280;173983;-71
2023/04/13 08:55:28;;;;;;;13.40;12.10;;;;;;;30.79;21.67;99465.38;103714;280;38546;-71
2023/04/13 08:58:03;;;;;;;14.30;12.80;;;;;;;30.79;21.33;99466.14;103654;280;38928;-71
2023/04/13 09:00:38;;;;;;;13.50;11.50;;;;;;;30.57;21.77;99471.30;103719;280;38291;-74
2023/04/13 09:03:13;;;;;;;12.60;11.40;;;;;;;30.62;21.61;99474.63;103683;280;38480;-76
2023/04/13 09:05:47;;;;;;;12.20;11.30;;;;;;;30.30;22.16;99476.09;103705;280;39428;-75
2023/04/13 09:08:21;;;;;;;12.30;11.20;;;;;;;29.67;22.17;99473.06;103712;280;38277;-75
2023/04/13 09:10:58;;;;;;;11.60;10.60;;;;;;;28.95;22.89;99471.02;103673;280;39442;-74
2023/04/13 09:13:32;;;;;;;14.60;12.10;;;;;;;28.83;23.15;99475.33;103686;280;38267;-74
2023/04/13 09:16:08;;;;;;;12.70;11.40;;;;;;;29.06;23.08;99476.98;103563;280;171423;-75
2023/04/13 09:18:55;;;;;;;13.00;11.70;;;;;;;29.25;23.42;99473.73;103672;280;38355;-73
2023/04/13 09:21:39;;;;;;;12.90;11.60;;;;;;;29.55;22.97;99470.80;103682;280;38716;-75
2023/04/13 09:24:14;;;;;;;12.70;11.30;;;;;;;29.65;21.74;99468.21;103689;280;39674;-75
2023/04/13 09:26:49;;;;;;;12.90;11.50;;;;;;;29.44;22.09;99464.33;103709;280;38974;-73
2023/04/13 09:29:23;;;;;;;11.70;10.70;;;;;;;29.53;22.18;99466.77;103687;280;38939;-73
2023/04/13 09:31:57;;;;;;;11.80;10.70;;;;;;;29.74;23.03;99471.81;103707;280;39402;-74
2023/04/13 09:34:31;;;;;;;12.30;11.10;;;;;;;29.96;22.64;99469.83;103241;280;629940;-74
2023/04/13 09:37:17;;;;;;;12.80;11.50;;;;;;;29.87;22.14;99465.87;103574;280;38799;-76
2023/04/13 09:39:51;;;;;;;12.70;11.60;;;;;;;29.10;22.24;99464.84;103709;279;38500;-76
2023/04/13 09:42:25;;;;;;;11.90;10.70;;;;;;;28.44;22.75;99461.88;103718;280;38352;-74
2023/04/13 09:45:03;;;;;;;10.50;9.60;;;;;;;27.93;24.32;99457.80;103519;280;40610;-72
2023/04/13 09:47:41;;;;;;;11.20;10.00;;;;;;;27.60;24.38;99467.74;103707;280;39548;-73
2023/04/13 09:50:27;;;;;;;12.80;11.30;;;;;;;26.88;24.01;99472.10;103698;280;39669;-73
2023/04/13 09:53:05;;;;;;;12.30;11.00;;;;;;;26.05;24.47;99473.66;103704;280;38520;-72
2023/04/13 09:55:39;;;;;;;11.70;10.60;;;;;;;25.37;25.57;99473.63;103675;280;38944;-75
2023/04/13 09:58:15;;;;;;;11.70;10.50;;;;;;;24.91;26.47;99470.02;103695;280;38700;-73
2023/04/13 10:00:49;;;;;;;14.70;11.10;;;;;;;24.53;27.02;99472.55;103735;280;38402;-73
2023/04/13 10:03:23;;;;;;;10.90;9.90;;;;;;;24.19;26.99;99472.39;103679;280;39416;-72
2023/04/13 10:05:57;;;;;;;12.40;11.10;;;;;;;23.76;27.27;99476.49;103697;280;38755;-75
2023/04/13 10:08:32;;;;;;;13.60;12.00;;;;;;;23.38;27.56;99477.55;103680;280;39331;-73
2023/04/13 10:11:10;;;;;;;12.40;11.20;;;;;;;23.03;28.05;99479.02;103712;280;38474;-73
2023/04/13 10:13:51;;;;;;;13.90;11.70;;;;;;;22.73;28.79;99483.20;103694;280;39281;-73
2023/04/13 10:16:55;;;;;;;13.30;11.90;;;;;;;22.49;29.18;99482.31;103744;280;38480;-74
2023/04/13 10:19:32;;;;;;;12.30;10.60;;;;;;;22.14;29.06;99488.89;103659;280;38784;-72
2023/04/13 10:22:06;;;;;;;12.20;11.00;;;;;;;21.67;29.55;99489.77;103684;280;38228;-73
2023/04/13 10:24:40;;;;;;;11.60;10.50;;;;;;;21.30;30.57;99488.09;103726;280;38623;-73
2023/04/13 10:27:21;;;;;;;10.80;9.70;;;;;;;21.10;30.93;99488.52;103722;280;40016;-73
2023/04/13 10:29:55;;;;;;;11.30;10.00;;;;;;;20.93;31.31;99486.46;103685;280;39445;-73
2023/04/13 10:32:30;;;;;;;11.70;10.50;;;;;;;20.73;30.84;99493.14;103716;280;38583;-75
2023/04/13 10:35:14;;;;;;;11.90;9.50;;;;;;;20.46;30.93;99493.77;103683;280;39655;-74
2023/04/13 10:37:58;;;;;;;11.70;9.20;;;;;;;20.15;31.48;99496.03;103722;280;38518;-73
2023/04/13 10:40:44;;;;;;;12.10;10.20;;;;;;;20.03;32.02;99490.23;103745;280;39401;-73
2023/04/13 10:43:29;;;;;;;12.80;10.40;;;;;;;20.07;32.11;99493.06;103676;280;39402;-73
2023/04/13 10:46:12;;;;;;;10.40;9.00;;;;;;;20.02;32.25;99490.35;103696;280;39454;-72
2023/04/13 10:48:57;;;;;;;11.30;10.10;;;;;;;20.06;32.21;99490.42;103438;282;172018;-73
2023/04/13 10:51:42;;;;;;;10.30;9.30;;;;;;;20.25;32.70;99489.08;103683;284;38958;-72
2023/04/13 10:54:17;;;;;;;9.70;8.80;;;;;;;20.36;32.05;99484.69;103691;280;38538;-72
2023/04/13 10:57:01;;;;;;;10.30;9.20;;;;;;;20.33;31.92;99483.36;103695;280;38518;-70
2023/04/13 10:59:43;;;;;;;9.90;9.00;;;;;;;20.19;31.37;99486.47;103067;280;899261;-70
2023/04/13 11:02:18;;;;;;;10.40;8.90;;;;;;;20.05;31.58;99487.91;103738;280;38420;-71
2023/04/13 11:04:52;;;;;;;9.60;8.70;;;;;;;19.88;31.93;99487.51;103697;280;38732;-71
2023/04/13 11:07:27;;;;;;;9.80;8.90;;;;;;;19.74;31.83;99488.27;103734;280;38491;-74
2023/04/13 11:10:01;;;;;;;10.20;8.80;;;;;;;19.55;31.84;99487.79;103033;280;897361;-74
2023/04/13 11:12:35;;;;;;;9.40;8.50;;;;;;;19.43;32.33;99487.66;103727;280;38977;-72
2023/04/13 11:15:12;;;;;;;9.20;8.30;;;;;;;19.44;32.74;99485.60;103543;280;38837;-73
2023/04/13 11:17:50;;;;;;;9.20;8.20;;;;;;;19.44;32.17;99483.64;103719;280;39883;-70
2023/04/13 11:20:33;;;;;;;8.20;7.40;;;;;;;19.41;32.20;99479.17;103696;280;38492;-73
2023/04/13 11:23:14;;;;;;;10.20;7.90;;;;;;;19.43;32.62;99475.23;103698;280;39943;-70
2023/04/13 11:25:56;;;;;;;8.30;7.60;;;;;;;19.33;32.85;99472.58;103622;280;174612;-72
2023/04/13 11:28:42;;;;;;;8.70;7.90;;;;;;;19.23;32.24;99476.91;103706;279;39599;-72
2023/04/13 11:31:16;;;;;;;9.40;8.40;;;;;;;19.06;31.98;99473.94;103669;280;38758;-74
2023/04/13 11:33:51;;;;;;;8.40;7.60;;;;;;;18.91;32.53;99471.17;103690;280;38237;-72
2023/04/13 11:36:29;;;;;;;8.30;7.60;;;;;;;18.86;33.08;99471.60;103076;280;899772;-72
2023/04/13 11:39:04;;;;;;;8.80;7.90;;;;;;;18.86;32.35;99471.10;103656;280;38397;-72
2023/04/13 11:41:42;;;;;;;8.80;7.80;;;;;;;18.85;32.12;99472.80;103703;280;38606;-72
2023/04/13 11:44:16;;;;;;;8.20;7.30;;;;;;;18.83;32.20;99472.77;103719;280;38910;-73
2023/04/13 11:46:53;;;;;;;8.70;7.50;;;;;;;18.80;32.00;99476.77;103696;280;38490;-72
2023/04/13 11:49:27;;;;;;;8.80;8.00;;;;;;;18.70;31.98;99477.09;103697;280;39363;-73
2023/04/13 11:52:01;;;;;;;11.20;8.20;;;;;;;18.55;31.92;99474.81;103684;280;39627;-75
2023/04/13 11:54:35;;;;;;;11.10;8.70;;;;;;;18.40;32.45;99473.59;103717;280;38610;-74
2023/04/13 11:57:09;;;;;;;10.30;9.30;;;;;;;18.30;33.00;99472.52;103557;280;38806;-72
2023/04/13 11:59:43;;;;;;;11.10;9.50;;;;;;;18.24;33.01;99474.95;103712;280;39507;-72
2023/04/13 12:02:23;;;;;;;12.00;9.30;;;;;;;18.15;33.16;99476.95;103688;280;39478;-72
2023/04/13 12:04:57;;;;;;;10.10;8.90;;;;;;;18.09;33.31;99475.90;103684;280;38925;-72